createdAt,value
2023-05-22T00:02:28.992Z,54.22
2023-05-22T00:05:03.386Z,54.36
2023-05-22T00:07:36.522Z,54.45
2023-05-22T00:10:10.361Z,54.49
2023-05-22T00:12:43.285Z,54.30
2023-05-22T00:15:16.380Z,54.22
2023-05-22T00:17:49.174Z,54.32
2023-05-22T00:20:22.075Z,54.31
2023-05-22T00:22:57.869Z,54.45
2023-05-22T00:25:30.711Z,55.55
2023-05-22T00:28:03.769Z,55.69
2023-05-22T00:30:36.759Z,56.60
2023-05-22T00:33:09.849Z,57.01
2023-05-22T00:35:42.625Z,57.17
2023-05-22T00:38:32.517Z,57.50
2023-05-22T00:41:07.291Z,57.66
2023-05-22T00:43:42.161Z,57.73
2023-05-22T00:46:15.335Z,57.87
2023-05-22T00:48:48.642Z,57.87
2023-05-22T00:51:22.811Z,57.84
2023-05-22T00:53:56.532Z,57.90
2023-05-22T00:56:30.425Z,58.18
2023-05-22T00:59:04.486Z,58.67
2023-05-22T01:01:42.854Z,59.01
2023-05-22T01:04:18.714Z,59.23
2023-05-22T01:06:51.851Z,59.18
2023-05-22T01:09:24.637Z,59.45
2023-05-22T01:12:07.195Z,59.67
2023-05-22T01:14:51.330Z,59.91
2023-05-22T01:17:30.664Z,60.47
2023-05-22T01:20:18.704Z,60.86
2023-05-22T01:23:25.746Z,61.33
2023-05-22T01:26:20.970Z,61.82
2023-05-22T01:29:13.605Z,62.00
2023-05-22T01:31:47.810Z,61.65
2023-05-22T01:34:22.966Z,61.36
2023-05-22T01:36:57.899Z,61.59
2023-05-22T01:39:33.198Z,61.86
2023-05-22T01:42:07.003Z,62.00
2023-05-22T01:44:40.208Z,62.26
2023-05-22T01:47:13.854Z,62.64
2023-05-22T01:49:49.075Z,62.58
2023-05-22T01:52:34.685Z,63.03
2023-05-22T01:55:14.851Z,63.02
2023-05-22T01:57:57.636Z,62.93
2023-05-22T02:00:33.821Z,63.14
2023-05-22T02:03:15.260Z,63.22
2023-05-22T02:05:53.501Z,63.31
2023-05-22T02:08:27.631Z,63.09
2023-05-22T02:11:02.265Z,62.68
2023-05-22T02:13:35.432Z,62.74
2023-05-22T02:16:09.791Z,62.83
2023-05-22T02:18:43.900Z,62.86
2023-05-22T02:21:17.232Z,63.05
2023-05-22T02:23:50.015Z,63.33
2023-05-22T02:26:24.240Z,63.19
2023-05-22T02:28:57.684Z,63.27
2023-05-22T02:31:31.751Z,63.17
2023-05-22T02:34:05.626Z,62.79
2023-05-22T02:36:39.124Z,63.28
2023-05-22T02:39:11.937Z,63.68
2023-05-22T02:41:45.365Z,64.38
2023-05-22T02:44:18.144Z,64.57
2023-05-22T02:46:51.004Z,65.15
2023-05-22T02:49:24.426Z,65.36
2023-05-22T02:51:57.281Z,65.53
2023-05-22T02:54:30.170Z,65.33
2023-05-22T02:57:03.753Z,65.11
2023-05-22T02:59:37.777Z,65.09
2023-05-22T03:02:12.430Z,65.49
2023-05-22T03:04:45.517Z,65.78
2023-05-22T03:07:20.745Z,65.57
2023-05-22T03:09:53.943Z,65.64
2023-05-22T03:12:27.015Z,65.52
2023-05-22T03:14:59.854Z,65.46
2023-05-22T03:17:32.808Z,65.33
2023-05-22T03:20:07.340Z,65.32
2023-05-22T03:22:40.339Z,66.00
2023-05-22T03:25:13.697Z,66.40
2023-05-22T03:27:46.715Z,67.33
2023-05-22T03:30:20.990Z,67.95
2023-05-22T03:33:02.391Z,68.14
2023-05-22T03:35:35.624Z,68.56
2023-05-22T03:38:08.664Z,68.82
2023-05-22T03:40:41.935Z,68.71
2023-05-22T03:43:15.953Z,68.73
2023-05-22T03:45:49.629Z,68.87
2023-05-22T03:48:23.175Z,68.79
2023-05-22T03:50:57.604Z,69.00
2023-05-22T03:53:30.768Z,69.21
2023-05-22T03:56:03.869Z,69.39
2023-05-22T03:58:36.831Z,69.22
2023-05-22T04:01:10.301Z,69.06
2023-05-22T04:03:43.245Z,69.00
2023-05-22T04:06:17.944Z,68.99
2023-05-22T04:08:52.741Z,68.67
2023-05-22T04:11:25.516Z,68.01
2023-05-22T04:14:04.814Z,67.20
2023-05-22T04:16:37.936Z,67.03
2023-05-22T04:19:11.260Z,66.55
2023-05-22T04:21:44.938Z,66.51
2023-05-22T04:24:18.565Z,66.17
2023-05-22T04:26:51.835Z,65.90
2023-05-22T04:29:24.933Z,65.71
2023-05-22T04:31:58.114Z,65.82
2023-05-22T04:34:31.503Z,65.65
2023-05-22T04:37:04.268Z,65.58
2023-05-22T04:39:38.326Z,65.28
2023-05-22T04:42:11.242Z,64.99
2023-05-22T04:44:46.484Z,64.73
2023-05-22T04:47:19.941Z,64.37
2023-05-22T04:49:53.115Z,64.14
2023-05-22T04:52:26.354Z,63.95
2023-05-22T04:55:00.920Z,63.50
2023-05-22T04:57:34.864Z,63.27
2023-05-22T05:00:09.444Z,62.97
2023-05-22T05:02:43.984Z,62.69
2023-05-22T05:05:17.502Z,62.10
2023-05-22T05:07:52.357Z,61.73
2023-05-22T05:10:25.333Z,61.14
2023-05-22T05:12:58.596Z,61.42
2023-05-22T05:15:31.707Z,61.09
2023-05-22T05:18:04.489Z,60.28
2023-05-22T05:20:38.229Z,59.94
2023-05-22T05:23:11.538Z,59.42
2023-05-22T05:25:44.740Z,59.24
2023-05-22T05:28:18.316Z,59.33
2023-05-22T05:30:51.168Z,59.51
2023-05-22T05:33:44.360Z,58.72
2023-05-22T05:36:40.924Z,59.14
2023-05-22T05:39:14.311Z,59.20
2023-05-22T05:41:47.365Z,58.66
2023-05-22T05:44:20.918Z,57.30
2023-05-22T05:46:54.947Z,56.58
2023-05-22T05:49:28.119Z,56.87
2023-05-22T05:52:01.374Z,56.47
2023-05-22T05:54:34.447Z,56.73
2023-05-22T05:57:11.802Z,56.70
2023-05-22T05:59:44.665Z,57.07
2023-05-22T06:02:36.310Z,56.30
2023-05-22T06:05:11.032Z,56.10
2023-05-22T06:07:45.266Z,56.08
2023-05-22T06:10:18.199Z,55.68
2023-05-22T06:13:17.573Z,55.38
2023-05-22T06:15:50.516Z,55.26
2023-05-22T06:18:25.801Z,55.21
2023-05-22T06:20:59.721Z,55.48
2023-05-22T06:23:33.198Z,55.26
2023-05-22T06:26:06.495Z,54.96
2023-05-22T06:28:39.395Z,54.45
2023-05-22T06:31:12.331Z,53.84
2023-05-22T06:33:46.684Z,53.49
2023-05-22T06:36:19.723Z,52.92
2023-05-22T06:38:55.102Z,52.73
2023-05-22T06:41:48.335Z,52.69
2023-05-22T06:44:21.648Z,52.80
2023-05-22T06:46:59.744Z,52.98
2023-05-22T06:49:33.000Z,52.79
2023-05-22T06:52:06.482Z,52.99
2023-05-22T06:54:43.065Z,53.33
2023-05-22T06:57:16.371Z,52.95
2023-05-22T06:59:49.217Z,52.45
2023-05-22T07:02:55.165Z,52.27
2023-05-22T07:05:37.173Z,52.58
2023-05-22T07:08:11.015Z,52.21
2023-05-22T07:10:44.769Z,51.64
2023-05-22T07:13:18.488Z,51.62
2023-05-22T07:15:51.284Z,51.98
2023-05-22T07:18:24.183Z,52.45
2023-05-22T07:20:57.189Z,52.11
2023-05-22T07:23:30.231Z,51.59
2023-05-22T07:26:03.227Z,51.40
2023-05-22T07:28:39.290Z,51.03
2023-05-22T07:31:18.109Z,50.83
2023-05-22T07:33:51.421Z,50.62
2023-05-22T07:36:24.686Z,50.07
2023-05-22T07:38:57.619Z,49.85
2023-05-22T07:41:30.538Z,49.63
2023-05-22T07:44:03.714Z,49.62
2023-05-22T07:46:41.604Z,49.83
2023-05-22T07:49:20.005Z,49.70
2023-05-22T07:51:53.797Z,49.65
2023-05-22T07:54:27.554Z,48.54
2023-05-22T07:57:03.946Z,48.30
2023-05-22T07:59:40.202Z,47.85
2023-05-22T08:02:14.669Z,47.59
2023-05-22T08:04:48.527Z,47.68
2023-05-22T08:07:21.393Z,47.58
2023-05-22T08:09:54.353Z,46.69
2023-05-22T08:12:27.217Z,45.94
2023-05-22T08:15:00.124Z,45.28
2023-05-22T08:17:33.251Z,44.92
2023-05-22T08:20:07.365Z,44.91
2023-05-22T08:22:41.674Z,45.30
2023-05-22T08:25:14.560Z,45.05
2023-05-22T08:27:47.858Z,45.27
2023-05-22T08:30:20.781Z,45.61
2023-05-22T08:32:53.657Z,45.20
2023-05-22T08:35:26.465Z,45.14
2023-05-22T08:37:59.280Z,44.20
2023-05-22T08:40:38.769Z,43.35
2023-05-22T08:43:12.464Z,42.80
2023-05-22T08:45:45.977Z,42.66
2023-05-22T08:48:22.467Z,42.04
2023-05-22T08:50:59.061Z,41.53
2023-05-22T08:53:33.138Z,41.65
2023-05-22T08:56:07.393Z,40.99
2023-05-22T08:58:41.861Z,40.31
2023-05-22T09:01:15.368Z,40.07
2023-05-22T09:03:51.544Z,40.55
2023-05-22T09:06:24.576Z,40.17
2023-05-22T09:08:57.858Z,39.78
2023-05-22T09:11:30.749Z,39.88
2023-05-22T09:14:12.289Z,39.37
2023-05-22T09:16:55.027Z,38.83
2023-05-22T09:19:28.127Z,39.25
2023-05-22T09:22:07.068Z,39.19
2023-05-22T09:24:43.929Z,39.23
2023-05-22T09:27:17.310Z,39.52
2023-05-22T09:29:55.177Z,39.16
2023-05-22T09:32:30.848Z,39.32
2023-05-22T09:35:07.983Z,39.24
2023-05-22T09:37:41.011Z,39.53
2023-05-22T09:40:15.442Z,40.35
2023-05-22T09:42:48.254Z,39.94
2023-05-22T09:45:25.301Z,39.47
2023-05-22T09:47:58.126Z,39.17
2023-05-22T09:50:30.947Z,38.96
2023-05-22T09:53:05.257Z,38.05
2023-05-22T09:55:38.520Z,36.49
2023-05-22T09:58:15.158Z,36.16
2023-05-22T10:00:50.101Z,36.53
2023-05-22T10:03:26.664Z,37.08
2023-05-22T10:06:02.263Z,36.82
2023-05-22T10:08:43.440Z,35.98
2023-05-22T10:11:18.496Z,35.69
2023-05-22T10:13:52.527Z,35.60
2023-05-22T10:16:26.323Z,36.10
2023-05-22T10:18:59.545Z,36.38
2023-05-22T10:21:34.216Z,36.76
2023-05-22T10:24:09.115Z,36.20
2023-05-22T10:26:42.746Z,35.87
2023-05-22T10:29:20.117Z,36.11
2023-05-22T10:31:59.659Z,35.74
2023-05-22T10:34:55.602Z,35.69
2023-05-22T10:37:44.367Z,35.75
2023-05-22T10:40:20.793Z,35.49
2023-05-22T10:42:53.037Z,35.47
2023-05-22T10:45:29.979Z,35.66
2023-05-22T10:48:10.376Z,36.38
2023-05-22T10:50:52.933Z,36.71
2023-05-22T10:53:28.117Z,36.48
2023-05-22T10:56:10.037Z,35.87
2023-05-22T10:58:43.615Z,35.75
2023-05-22T11:01:17.930Z,35.91
2023-05-22T11:04:02.322Z,36.34
2023-05-22T11:06:42.627Z,36.74
2023-05-22T11:09:28.970Z,36.70
2023-05-22T11:12:19.673Z,36.26
2023-05-22T11:14:53.209Z,35.84
2023-05-22T11:17:29.089Z,35.40
2023-05-22T11:20:06.620Z,34.37
2023-05-22T11:22:41.165Z,34.62
2023-05-22T11:25:17.912Z,35.12
2023-05-22T11:27:51.295Z,34.50
2023-05-22T11:30:28.667Z,33.91
2023-05-22T11:33:02.803Z,33.45
2023-05-22T11:35:37.040Z,34.59
2023-05-22T11:38:10.451Z,34.84
2023-05-22T11:40:43.453Z,34.70
2023-05-22T11:43:16.267Z,34.65
2023-05-22T11:45:49.019Z,35.26
2023-05-22T11:48:25.373Z,34.85
2023-05-22T11:50:58.322Z,34.62
2023-05-22T11:53:31.450Z,35.22
2023-05-22T11:56:07.547Z,34.90
2023-05-22T11:58:40.399Z,34.79
2023-05-22T12:01:13.210Z,34.64
2023-05-22T12:03:46.216Z,34.93
2023-05-22T12:06:20.325Z,34.28
2023-05-22T12:08:53.335Z,34.32
2023-05-22T12:11:27.424Z,33.90
2023-05-22T12:14:06.505Z,33.94
2023-05-22T12:16:39.769Z,34.47
2023-05-22T12:19:13.976Z,33.29
2023-05-22T12:21:46.879Z,33.78
2023-05-22T12:24:23.620Z,33.59
2023-05-22T12:26:57.578Z,33.48
2023-05-22T12:29:30.974Z,33.43
2023-05-22T12:32:08.588Z,33.53
2023-05-22T12:34:47.162Z,33.40
2023-05-22T12:37:25.474Z,33.65
2023-05-22T12:40:00.183Z,33.34
2023-05-22T12:42:33.209Z,33.30
2023-05-22T12:45:07.281Z,33.09
2023-05-22T12:47:40.178Z,34.14
2023-05-22T12:50:13.942Z,34.21
2023-05-22T12:52:46.777Z,34.00
2023-05-22T12:55:19.765Z,33.93
2023-05-22T12:57:54.185Z,33.12
2023-05-22T13:00:27.467Z,33.32
2023-05-22T13:03:00.454Z,33.60
2023-05-22T13:05:33.809Z,33.85
2023-05-22T13:08:06.734Z,34.14
2023-05-22T13:10:39.600Z,33.54
2023-05-22T13:13:12.415Z,33.11
2023-05-22T13:15:45.607Z,32.89
2023-05-22T13:18:18.614Z,33.19
2023-05-22T13:20:52.127Z,33.72
2023-05-22T13:23:25.038Z,34.09
2023-05-22T13:25:57.854Z,34.17
2023-05-22T13:28:30.730Z,33.71
2023-05-22T13:31:03.448Z,33.65
2023-05-22T13:33:36.272Z,33.77
2023-05-22T13:36:09.590Z,33.53
2023-05-22T13:38:42.408Z,33.39
2023-05-22T13:41:17.836Z,33.09
2023-05-22T13:43:50.672Z,33.33
2023-05-22T13:46:24.343Z,33.55
2023-05-22T13:48:57.152Z,32.36
2023-05-22T13:51:30.439Z,32.17
2023-05-22T13:54:03.894Z,31.61
2023-05-22T13:56:36.691Z,31.52
2023-05-22T13:59:09.647Z,32.07
2023-05-22T14:01:42.515Z,32.10
2023-05-22T14:04:15.385Z,32.35
2023-05-22T14:06:48.225Z,31.65
2023-05-22T14:09:21.232Z,31.14
2023-05-22T14:11:54.140Z,30.45
2023-05-22T14:14:26.969Z,31.03
2023-05-22T14:16:59.825Z,31.82
2023-05-22T14:19:32.723Z,32.02
2023-05-22T14:22:06.015Z,32.41
2023-05-22T14:24:38.811Z,32.47
2023-05-22T14:27:11.567Z,32.30
2023-05-22T14:29:44.426Z,31.82
2023-05-22T14:32:17.202Z,31.98
2023-05-22T14:34:50.092Z,32.47
2023-05-22T14:37:22.879Z,32.48
2023-05-22T14:39:55.661Z,32.06
2023-05-22T14:42:28.501Z,32.39
2023-05-22T14:45:01.342Z,32.08
2023-05-22T14:47:34.194Z,31.32
2023-05-22T14:50:19.253Z,31.02
2023-05-22T14:52:53.381Z,30.99
2023-05-22T14:55:28.076Z,31.27
2023-05-22T14:58:01.094Z,30.77
2023-05-22T15:00:33.955Z,30.60
2023-05-22T15:03:06.960Z,30.86
2023-05-22T15:05:40.021Z,30.84
2023-05-22T15:08:13.070Z,30.78
2023-05-22T15:10:45.928Z,31.08
2023-05-22T15:13:18.741Z,30.88
2023-05-22T15:15:51.766Z,30.77
2023-05-22T15:18:24.560Z,31.05
2023-05-22T15:20:57.758Z,31.68
2023-05-22T15:23:30.811Z,31.74
2023-05-22T15:26:04.174Z,32.02
2023-05-22T15:28:37.033Z,32.16
2023-05-22T15:31:09.873Z,32.06
2023-05-22T15:33:42.703Z,31.89
2023-05-22T15:36:15.595Z,32.02
2023-05-22T15:38:48.384Z,32.26
2023-05-22T15:41:21.829Z,32.30
2023-05-22T15:43:56.318Z,32.68
2023-05-22T15:46:29.676Z,32.68
2023-05-22T15:49:02.728Z,32.79
2023-05-22T15:51:35.878Z,32.68
2023-05-22T15:54:10.617Z,32.99
2023-05-22T15:56:43.399Z,33.54
2023-05-22T15:59:16.177Z,34.22
2023-05-22T16:01:49.565Z,34.50
2023-05-22T16:04:22.438Z,34.72
2023-05-22T16:06:55.316Z,34.34
2023-05-22T16:09:29.872Z,33.88
2023-05-22T16:12:05.280Z,33.71
2023-05-22T16:14:39.852Z,33.27
2023-05-22T16:17:12.936Z,33.43
2023-05-22T16:19:45.781Z,32.41
2023-05-22T16:22:18.554Z,32.25
2023-05-22T16:24:51.357Z,31.77
2023-05-22T16:27:25.875Z,31.62
2023-05-22T16:30:02.484Z,31.51
2023-05-22T16:32:35.318Z,31.73
2023-05-22T16:35:12.755Z,31.43
2023-05-22T16:37:45.811Z,31.47
2023-05-22T16:40:18.912Z,31.29
2023-05-22T16:42:51.842Z,31.43
2023-05-22T16:45:25.128Z,31.32
2023-05-22T16:47:57.968Z,31.44
2023-05-22T16:50:30.805Z,31.65
2023-05-22T16:53:03.695Z,31.67
2023-05-22T16:55:36.599Z,31.61
2023-05-22T16:58:11.757Z,31.62
2023-05-22T17:00:44.710Z,32.15
2023-05-22T17:03:17.945Z,32.59
2023-05-22T17:05:51.468Z,32.34
2023-05-22T17:08:24.254Z,32.28
2023-05-22T17:10:57.397Z,32.63
2023-05-22T17:13:30.289Z,33.04
2023-05-22T17:16:03.153Z,33.21
2023-05-22T17:18:36.891Z,33.47
2023-05-22T17:21:10.369Z,34.34
2023-05-22T17:23:43.153Z,34.78
2023-05-22T17:26:16.738Z,35.29
2023-05-22T17:28:49.562Z,35.44
2023-05-22T17:31:22.964Z,35.75
2023-05-22T17:33:55.751Z,35.48
2023-05-22T17:36:28.616Z,35.35
2023-05-22T17:39:01.689Z,35.76
2023-05-22T17:41:34.529Z,36.32
2023-05-22T17:44:07.465Z,36.77
2023-05-22T17:46:41.403Z,36.75
2023-05-22T17:49:14.393Z,36.42
2023-05-22T17:51:47.363Z,36.66
2023-05-22T17:54:20.208Z,36.92
2023-05-22T17:56:53.063Z,36.76
2023-05-22T17:59:26.000Z,36.55
2023-05-22T18:01:58.889Z,36.69
2023-05-22T18:04:31.776Z,36.55
2023-05-22T18:07:04.702Z,36.65
2023-05-22T18:09:37.984Z,36.43
2023-05-22T18:12:17.870Z,36.56
2023-05-22T18:15:04.662Z,36.59
2023-05-22T18:17:37.589Z,36.85
2023-05-22T18:20:12.981Z,36.98
2023-05-22T18:22:45.825Z,37.08
2023-05-22T18:25:18.651Z,37.26
2023-05-22T18:27:51.526Z,37.52
2023-05-22T18:30:24.480Z,37.72
2023-05-22T18:32:57.295Z,37.91
2023-05-22T18:35:30.244Z,38.04
2023-05-22T18:38:04.055Z,37.95
2023-05-22T18:40:36.998Z,38.11
2023-05-22T18:43:09.777Z,38.15
2023-05-22T18:45:42.793Z,38.48
2023-05-22T18:48:15.654Z,38.44
2023-05-22T18:50:48.553Z,38.84
2023-05-22T18:53:23.166Z,39.22
2023-05-22T18:55:55.994Z,39.49
2023-05-22T18:58:29.139Z,39.67
2023-05-22T19:01:02.732Z,39.89
2023-05-22T19:03:35.957Z,40.11
2023-05-22T19:06:09.505Z,40.19
2023-05-22T19:08:42.452Z,40.46
2023-05-22T19:11:15.263Z,40.50
2023-05-22T19:13:48.104Z,40.70
2023-05-22T19:16:21.172Z,40.84
2023-05-22T19:18:54.143Z,41.03
2023-05-22T19:21:27.242Z,41.08
2023-05-22T19:24:00.063Z,41.28
2023-05-22T19:26:32.953Z,41.53
2023-05-22T19:29:05.837Z,41.81
2023-05-22T19:31:39.020Z,41.80
2023-05-22T19:34:12.023Z,42.13
2023-05-22T19:36:44.758Z,42.11
2023-05-22T19:39:17.638Z,42.33
2023-05-22T19:41:51.728Z,42.57
2023-05-22T19:44:24.605Z,42.73
2023-05-22T19:46:57.896Z,43.00
2023-05-22T19:49:31.821Z,43.02
2023-05-22T19:52:04.867Z,43.07
2023-05-22T19:54:37.989Z,43.27
2023-05-22T19:57:10.971Z,43.57
2023-05-22T19:59:43.759Z,43.66
2023-05-22T20:02:16.946Z,44.24
2023-05-22T20:04:49.913Z,44.53
2023-05-22T20:07:22.691Z,44.73
2023-05-22T20:09:55.533Z,44.80
2023-05-22T20:12:28.441Z,45.14
2023-05-22T20:15:02.860Z,45.53
2023-05-22T20:17:36.422Z,45.78
2023-05-22T20:20:11.081Z,46.11
2023-05-22T20:22:43.970Z,46.38
2023-05-22T20:25:17.460Z,46.50
2023-05-22T20:27:50.424Z,46.55
2023-05-22T20:30:23.485Z,46.93
2023-05-22T20:32:56.289Z,47.11
2023-05-22T20:35:30.788Z,47.29
2023-05-22T20:38:04.388Z,47.58
2023-05-22T20:40:38.365Z,47.73
2023-05-22T20:43:14.673Z,47.94
2023-05-22T20:45:47.519Z,48.16
2023-05-22T20:48:20.521Z,48.29
2023-05-22T20:50:53.330Z,48.33
2023-05-22T20:53:26.245Z,48.53
2023-05-22T20:55:59.247Z,48.58
2023-05-22T20:58:32.075Z,49.03
2023-05-22T21:01:05.004Z,49.18
2023-05-22T21:03:38.001Z,49.17
2023-05-22T21:06:11.205Z,49.52
2023-05-22T21:08:44.002Z,49.87
2023-05-22T21:11:18.455Z,50.24
2023-05-22T21:13:51.288Z,50.37
2023-05-22T21:16:24.178Z,50.57
2023-05-22T21:18:57.019Z,50.77
2023-05-22T21:21:29.908Z,50.85
2023-05-22T21:24:02.965Z,51.11
2023-05-22T21:26:36.256Z,52.02
2023-05-22T21:29:09.198Z,52.34
2023-05-22T21:31:42.174Z,52.15
2023-05-22T21:34:14.933Z,52.28
2023-05-22T21:36:47.801Z,52.16
2023-05-22T21:39:20.740Z,52.32
2023-05-22T21:41:53.565Z,52.14
2023-05-22T21:44:26.328Z,51.96
2023-05-22T21:46:59.130Z,52.25
2023-05-22T21:49:33.400Z,52.29
2023-05-22T21:52:06.874Z,52.73
2023-05-22T21:54:39.663Z,53.12
2023-05-22T21:57:12.619Z,53.83
2023-05-22T21:59:47.655Z,54.39
2023-05-22T22:02:20.541Z,54.48
2023-05-22T22:04:53.424Z,54.80
2023-05-22T22:07:27.378Z,55.09
2023-05-22T22:10:01.155Z,55.24
2023-05-22T22:12:34.045Z,55.55
2023-05-22T22:15:07.697Z,55.84
2023-05-22T22:17:41.077Z,56.02
2023-05-22T22:20:14.940Z,56.12
2023-05-22T22:22:47.842Z,56.12
2023-05-22T22:25:21.350Z,56.66
2023-05-22T22:27:54.246Z,56.78
2023-05-22T22:30:27.823Z,57.04
2023-05-22T22:33:00.741Z,56.91
2023-05-22T22:35:34.083Z,57.13
2023-05-22T22:38:06.834Z,57.41
2023-05-22T22:40:39.846Z,57.94
2023-05-22T22:43:13.371Z,58.23
2023-05-22T22:45:46.530Z,58.91
2023-05-22T22:48:22.726Z,59.27
2023-05-22T22:50:55.579Z,59.65
2023-05-22T22:53:28.923Z,59.94
2023-05-22T22:56:03.054Z,60.51
2023-05-22T22:58:36.992Z,60.85
2023-05-22T23:01:10.035Z,60.60
2023-05-22T23:03:42.823Z,61.11
2023-05-22T23:06:17.294Z,60.77
2023-05-22T23:08:50.277Z,61.07
2023-05-22T23:11:23.397Z,61.60
2023-05-22T23:13:56.330Z,62.00
2023-05-22T23:16:29.194Z,62.27
2023-05-22T23:19:02.056Z,62.38
2023-05-22T23:21:35.719Z,62.16
2023-05-22T23:24:10.261Z,61.96
2023-05-22T23:26:43.085Z,62.45
2023-05-22T23:29:15.990Z,62.65
2023-05-22T23:31:50.748Z,62.67
2023-05-22T23:34:24.226Z,62.35
2023-05-22T23:36:57.332Z,62.52
2023-05-22T23:39:30.115Z,62.94
2023-05-22T23:42:03.409Z,62.68
2023-05-22T23:44:36.700Z,62.50
2023-05-22T23:47:10.382Z,62.50
2023-05-22T23:49:43.178Z,62.41
2023-05-22T23:52:16.234Z,62.51
2023-05-22T23:54:48.962Z,62.43
2023-05-22T23:57:22.085Z,62.38
2023-05-22T23:59:54.895Z,62.18
